Tiempo atmosférico en la estación meteorológica de Serradilla, Cáceres (410 m.)



Fecha
DESCASC
Temp. máxima en grados centígrados (hora)
DESCASC
Temp. mínima en grados centígrados (hora)
DESCASC
Temp. media en grados centígrados
DESCASC
Racha de viento máxima en m/sg (hora)
DESCASC
Velocidad máxima media en intervalos de 10 minutos(hora)
DESCASC
Precipitaciones diarias en mm
DESCASC
Precipitaciones de 00:00 a 06:00 en mm
DESCASC
Precipitaciones de 06:00 a 12:00 en mm
DESCASC
Precipitaciones de 12:00 a 18:00 en mm
DESCASC
Precipitaciones de 18:00 a 24:00 en mm
DESCASC
19-01-2020 12.3 (14:00) 5 (23:59) 8.7 19.72 (16:50) 10.28 (14:20) 0 0 0 0 0
18-01-2020 10.7 (20:40) 7.6 (02:30) 9.1 8.33 (21:00) 5.56 (21:10) 11.8 1.8 9.6 0.4 0
17-01-2020 14 (15:20) 7.6 (22:50) 10.8 7.22 (15:50) 3.89 (15:30) 0.2 0 0 0.2 0
16-01-2020 14.9 (15:10) 8.1 (00:00) 11.5 9.17 (22:40) 5.56 (16:30) 3.6 3 0 0 0.6
15-01-2020 8.5 (17:00) 6.1 (00:00) 7.3 6.39 (18:20) 4.17 (18:20) 5.6 0 0.8 4.6 0.2
14-01-2020 8.4 (15:40) 2 (00:00) 5.2 3.89 (14:20) 2.78 (14:20) 1 0 0 0 1
13-01-2020 10.6 (16:00) 0.7 (00:00) 5.7 4.44 (09:30) 3.06 (06:00) 0 0 0 0 0
12-01-2020 12.2 (15:30) 0 (00:00) 6.1 4.17 (14:50) 2.22 (11:10) 0 0 0 0 0
11-01-2020 10.6 (15:40) 2.6 (00:00) 6.6 6.67 (12:10) 4.17 (12:10) 0 0 0 0 0
10-01-2020 11.8 (15:40) 5.3 (00:00) 8.6 17.22 (05:30) 10 (05:30) 0 0 0 0 0
09-01-2020 14.1 (15:30) 3.1 (00:00) 8.6 12.5 (23:50) 7.5 (23:50) 0 0 0 0 0
08-01-2020 11.3 (16:50) 1.8 (00:00) 6.6 5.28 (09:10) 3.61 (08:50) 0 0 0 0 0
07-01-2020 11.8 (15:30) 1.6 (00:00) 6.7 5 (08:50) 3.33 (09:00) 0 0 0 0 0
06-01-2020 11.6 (16:10) 1.3 (00:00) 6.5 5.83 (08:00) 3.89 (06:20) 0 0 0 0 0
05-01-2020 10.9 (15:40) 3.5 (00:00) 7.2 7.22 (07:20) 5.28 (07:20) 0 0 0 0 0
04-01-2020 9.9 (15:40) 2.7 (00:00) 6.3 6.94 (11:10) 5 (12:20) 0 0 0 0 0
03-01-2020 7.9 (15:00) 3.2 (00:00) 5.6 5.28 (18:10) 4.17 (18:10) 0 0 0 0 0
02-01-2020 7.7 (15:30) 2.2 (00:00) 4.9 5.56 (12:00) 3.89 (12:00) 0 0 0 0 0
01-01-2020 10.7 (16:10) 2.8 (00:00) 6.7 6.39 (12:20) 4.17 (12:10) 0 0 0 0 0
31-12-2019 11.3 (16:30) 3 (00:00) 7.2 6.94 (13:20) 4.72 (13:20) 0 0 0 0 0
30-12-2019 11.5 (16:10) 3.1 (00:00) 7.3 6.39 (12:50) 4.72 (13:30) 0 0 0 0 0
29-12-2019 13.5 (15:10) 6.4 (00:00) 10 9.44 (11:10) 6.67 (07:20) 0 0 0 0 0
28-12-2019 14.9 (16:10) 5.8 (00:00) 10.3 9.17 (09:30) 6.67 (22:40) 0 0 0 0 0
27-12-2019 13.6 (15:20) 7.5 (00:00) 10.6 11.67 (08:10) 7.78 (08:10) 0 0 0 0 0
26-12-2019 14.8 (15:20) 6.9 (00:00) 10.9 6.94 (23:20) 5 (23:10) 0 0 0 0 0
25-12-2019 14.7 (15:30) 8.4 (00:00) 11.5 8.89 (03:20) 6.39 (03:20) 0 0 0 0 0
24-12-2019 13.7 (16:10) 6.3 (00:00) 10 8.89 (22:10) 5.56 (10:20) 0 0 0 0 0
23-12-2019 12.8 (15:30) 5.9 (00:00) 9.4 5 (00:10) 2.78 (00:20) 0 0 0 0 0
22-12-2019 15.8 (15:40) 9.3 (00:00) 12.6 13.06 (14:10) 8.89 (16:00) 0 0 0 0 0

Gráficas

Temp. máximas Temp. mínimas Temp. medias Precipitaciones Rachas de viento máximas Velocidades máximas media en intervalos de 10 minutos

Datos horarios

Fecha y hora oficial Temperatura (ºC) Velocidad del viento (km/h) Dirección del viento Racha (km/h) Dirección de racha Precipitación (mm) Presión (hPa) Tendencia (hPa) Humedad (%)
2020-01-20 23:00:00 6.8 29 Este 58 Este 0 -- -- 65
2020-01-20 22:00:00 7.2 28 Nordeste 54 Nordeste 0 -- -- 64
2020-01-20 21:00:00 7.2 25 Este 49 Nordeste 0 -- -- 64
2020-01-20 20:00:00 7.1 24 Nordeste 41 Nordeste 0 -- -- 60
2020-01-20 19:00:00 6.8 17 Nordeste 29 Nordeste 0 -- -- 60
2020-01-20 18:00:00 6.5 11 Nordeste 22 Nordeste 0 -- -- 62
2020-01-20 17:00:00 6.1 10 Nordeste 23 Nordeste 0 -- -- 59
2020-01-20 16:00:00 5.7 10 Nordeste 30 Nordeste 0 -- -- 57
2020-01-20 15:00:00 5.6 20 Nordeste 39 Nordeste 0 -- -- 54
2020-01-20 14:00:00 5.2 18 Nordeste 30 Este 0 -- -- 51
2020-01-20 13:00:00 6.3 14 Nordeste 25 Nordeste 0 -- -- 45
2020-01-20 12:00:00 6.3 12 Nordeste 19 Nordeste 0 -- -- 43
2020-01-20 11:00:00 5.3 9 Norte 15 Norte 0 -- -- 48
2020-01-20 10:00:00 4.3 6 Norte 16 Noroeste 0 -- -- 51
2020-01-20 09:00:00 2.8 10 Norte 22 Norte 0 -- -- 55
2020-01-20 08:00:00 3.1 12 Norte 22 Norte 0 -- -- 54
2020-01-20 07:00:00 2.7 7 Norte 16 Noroeste 0 -- -- 57
2020-01-20 06:00:00 3 6 Norte 12 Norte 0 -- -- 54
2020-01-20 05:00:00 3.7 6 Norte 25 Norte 0 -- -- 52
2020-01-20 04:00:00 4.6 13 Norte 26 Norte 0 -- -- 51
2020-01-20 03:00:00 4.6 13 Norte 23 Norte 0 -- -- 51
2020-01-20 02:00:00 4.2 6 Norte 23 Norte 0 -- -- 51
2020-01-20 01:00:00 5 14 Norte 28 Norte 0 -- -- 46
2020-01-20 00:00:00 5 16 Norte 40 Norte 0 -- -- 46
2020-01-19 23:00:00 5.7 24 Norte 48 Norte 0 -- -- 43
2020-01-19 22:00:00 6.1 27 Norte 60 Norte 0 -- -- 39
2020-01-19 21:00:00 7 27 Norte 60 Norte 0 -- -- 39
2020-01-19 20:00:00 7.7 24 Norte 54 Norte 0 -- -- 43
2020-01-19 19:00:00 8.9 27 Norte 44 Noroeste 0 -- -- 41
2020-01-19 18:00:00 10 20 Norte 48 Norte 0 -- -- 42
2020-01-19 17:00:00 11.3 28 Nordeste 71 Nordeste 0 -- -- 34
2020-01-19 16:00:00 11.8 23 Norte 58 Nordeste 0 -- -- 36
2020-01-19 15:00:00 12 28 Norte 71 Norte 0 -- -- 41
2020-01-19 14:00:00 12.3 27 Nordeste 45 Nordeste 0 -- -- 43
2020-01-19 13:00:00 11.5 30 Nordeste 64 Nordeste 0 -- -- 48
2020-01-19 12:00:00 11.2 22 Norte 53 Nordeste 0 -- -- 56
2020-01-19 11:00:00 8.9 30 Norte 51 Norte 0 -- -- 66
2020-01-19 10:00:00 8 26 Norte 53 Norte 0 -- -- 72
2020-01-19 09:00:00 7.7 28 Norte 46 Noroeste 0 -- -- 74
2020-01-19 08:00:00 7.9 21 Norte 42 Norte 0 -- -- 74
2020-01-19 07:00:00 8 22 Norte 35 Norte 0 -- -- 77
2020-01-19 06:00:00 7.1 4 Norte 22 Noroeste 0 -- -- 90
2020-01-19 05:00:00 7.5 12 Noroeste 32 Oeste 0 -- -- 87
2020-01-19 04:00:00 8.4 14 Noroeste 30 Oeste 0 -- -- 81
2020-01-19 03:00:00 8.8 7 Oeste 21 Oeste 0 -- -- 79
2020-01-19 02:00:00 8.3 12 Oeste 33 Noroeste 0 -- -- 79
2020-01-19 01:00:00 9 9 Oeste 24 Oeste 0 -- -- 75
2020-01-19 00:00:00 9 9 Noroeste 28 Noroeste 0 -- -- 81
2020-01-18 23:00:00 8.7 7 Oeste 19 Oeste 0 -- -- 91
2020-01-18 22:00:00 9.4 10 Oeste 28 Oeste 0 -- -- 95
2020-01-18 21:00:00 10.6 19 Sudoeste 30 Oeste 0 -- -- 92
2020-01-18 20:00:00 10.3 8 Oeste 15 Oeste 0 -- -- 100
2020-01-18 19:00:00 10.2 9 Oeste 15 Oeste 0 -- -- 100
2020-01-18 18:00:00 10.3 4 Sudoeste 7 Sudoeste 0 -- -- 100
2020-01-18 17:00:00 9.9 3 Nordeste 7 Nordeste 0 -- -- 100
2020-01-18 16:00:00 9.6 6 Nordeste 14 Este 0 -- -- 100
2020-01-18 15:00:00 9.4 12 Nordeste 21 Este 0 -- -- 100
2020-01-18 14:00:00 9.2 11 Nordeste 20 Este 0.2 -- -- 100
2020-01-18 13:00:00 8.7 12 Nordeste 21 Nordeste 0.2 -- -- 100
2020-01-18 12:00:00 8.5 14 Nordeste 21 Este 0.6 -- -- 100
2020-01-18 11:00:00 8.7 13 Este 20 Este 2 -- -- 100
2020-01-18 10:00:00 8.3 9 Este 19 Este 1.8 -- -- 100
2020-01-18 09:00:00 7.8 10 Este 18 Este 1.6 -- -- 100
2020-01-18 08:00:00 7.7 10 Este 20 Este 1.4 -- -- 100
2020-01-18 07:00:00 7.7 7 Nordeste 15 Nordeste 2.2 -- -- 99
2020-01-18 06:00:00 8.3 4 Norte 11 Nordeste 0.6 -- -- 98
2020-01-18 05:00:00 8.3 5 Este 9 Nordeste 1.2 -- -- 96
2020-01-18 04:00:00 8.2 4 Nordeste 6 Este 0 -- -- 94
2020-01-18 03:00:00 7.8 4 Nordeste 6 Nordeste 0 -- -- 93
2020-01-18 02:00:00 7.8 5 Este 8 Este 0 -- -- 90
2020-01-18 01:00:00 8.2 4 Este 6 Este 0 -- -- 87
2020-01-18 00:00:00 8.3 0 Calma 3 Nordeste 0 -- -- 84
2020-01-17 23:00:00 7.7 3 Norte 8 Este 0 -- -- 90
2020-01-17 22:00:00 8.2 3 Nordeste 8 Sudoeste 0 -- -- 87
2020-01-17 21:00:00 9.5 3 Oeste 8 Oeste 0 -- -- 79
2020-01-17 20:00:00 9.8 5 Oeste 9 Sudoeste 0 -- -- 79
2020-01-17 19:00:00 10.1 6 Oeste 9 Sudoeste 0 -- -- 80
2020-01-17 18:00:00 11.3 5 Sudoeste 8 Sudoeste 0 -- -- 73
2020-01-17 17:00:00 12.7 4 Noroeste 11 Oeste 0 -- -- 71
2020-01-17 16:00:00 12.5 6 Oeste 26 Sudoeste 0 -- -- 69
2020-01-17 15:00:00 13.2 12 Sudoeste 19 Sudoeste 0 -- -- 69
2020-01-17 14:00:00 11.8 7 Sudoeste 16 Oeste 0 -- -- 76
2020-01-17 13:00:00 11.1 11 Sudoeste 22 Oeste 0.2 -- -- 89
2020-01-17 12:00:00 9.2 4 Sudoeste 12 Sudoeste 0 -- -- 100
2020-01-17 11:00:00 8.5 8 Sudoeste 13 Sudoeste 0 -- -- 100
2020-01-17 10:00:00 8.2 5 Sudoeste 10 Sudoeste 0 -- -- 100
2020-01-17 09:00:00 7.9 5 Sudoeste 10 Sudoeste 0 -- -- 100
2020-01-17 08:00:00 8.1 6 Sur 9 Sur 0 -- -- 100
2020-01-17 07:00:00 8.4 5 Sudoeste 12 Sur 0 -- -- 100
2020-01-17 06:00:00 8.5 6 Sudoeste 11 Sudoeste 0 -- -- 99
2020-01-17 05:00:00 8.8 7 Sudoeste 12 Sudoeste 0 -- -- 98
2020-01-17 04:00:00 9.2 6 Sudoeste 12 Sudoeste 0 -- -- 96
2020-01-17 03:00:00 9.5 6 Sudoeste 15 Oeste 0 -- -- 95
2020-01-17 02:00:00 9.6 3 Oeste 12 Sudoeste 0 -- -- 94
2020-01-17 01:00:00 9.8 8 Sudoeste 23 Sudoeste 0 -- -- 92
2020-01-17 00:00:00 10.1 9 Sudoeste 24 Sudoeste 0 -- -- 88
2020-01-16 23:00:00 11.1 14 Sudoeste 33 Sudoeste 0 -- -- 80
2020-01-16 22:00:00 10.3 6 Sur 10 Sur 0.4 -- -- 77
2020-01-16 21:00:00 11.7 9 Sur 27 Sur 0.2 -- -- 70
2020-01-16 20:00:00 12.1 11 Sur 22 Sur 0 -- -- 62
2020-01-16 19:00:00 11.5 4 Sudeste 12 Sur 0 -- -- 69
2020-01-16 18:00:00 13.2 8 Sur 18 Sur 0 -- -- 63
2020-01-16 17:00:00 13.8 11 Sur 29 Sur 0 -- -- 62
2020-01-16 16:00:00 14.4 19 Sur 30 Sur 0 -- -- 61
2020-01-16 15:00:00 14.8 10 Sur 28 Sur 0 -- -- 67
2020-01-16 14:00:00 13.8 8 Sur 22 Sur 0 -- -- 74
2020-01-16 13:00:00 12.8 12 Sur 21 Sur 0 -- -- 80
2020-01-16 12:00:00 11.4 7 Sudeste 13 Sudeste 0 -- -- 90
2020-01-16 11:00:00 10.4 9 Sudeste 15 Sudeste 0 -- -- 94
2020-01-16 10:00:00 9.4 6 Este 10 Este 0 -- -- 98
2020-01-16 09:00:00 9.3 4 Este 8 Este 0 -- -- 99
2020-01-16 08:00:00 9.2 4 Este 10 Este 0 -- -- 98
2020-01-16 07:00:00 8.6 5 Nordeste 10 Nordeste 0 -- -- 99
2020-01-16 06:00:00 8.4 6 Nordeste 12 Nordeste 0 -- -- 99
2020-01-16 05:00:00 8.5 8 Nordeste 17 Nordeste 0 -- -- 99
2020-01-16 04:00:00 8.2 14 Nordeste 22 Nordeste 0 -- -- 99
2020-01-16 03:00:00 8.1 10 Nordeste 17 Nordeste 0.8 -- -- 99
2020-01-16 02:00:00 8.1 10 Nordeste 21 Nordeste 2 -- -- 99
2020-01-16 01:00:00 8.6 11 Nordeste 18 Nordeste 0.2 -- -- 98
2020-01-16 00:00:00 8.5 12 Nordeste 16 Nordeste 0 -- -- 99
2020-01-15 23:00:00 8.2 10 Nordeste 17 Nordeste 0 -- -- 100
2020-01-15 22:00:00 8.1 9 Nordeste 20 Nordeste 0 -- -- 100
2020-01-15 21:00:00 8 10 Nordeste 19 Nordeste 0.2 -- -- 99
2020-01-15 20:00:00 8 7 Nordeste 17 Nordeste 0 -- -- 99
2020-01-15 19:00:00 8 11 Nordeste 23 Este 0 -- -- 99
2020-01-15 18:00:00 8.1 13 Nordeste 21 Este 0 -- -- 98
2020-01-15 17:00:00 8.5 11 Nordeste 21 Nordeste 0 -- -- 98
2020-01-15 16:00:00 8 13 Nordeste 19 Nordeste 0 -- -- 99
2020-01-15 15:00:00 7.7 10 Nordeste 18 Nordeste 0.8 -- -- 99
2020-01-15 14:00:00 7.4 9 Nordeste 18 Nordeste 2.4 -- -- 99
2020-01-15 13:00:00 7.3 12 Nordeste 18 Nordeste 1.4 -- -- 98
2020-01-15 12:00:00 7.9 10 Nordeste 14 Nordeste 0 -- -- 94
2020-01-15 11:00:00 8 8 Nordeste 15 Este 0.2 -- -- 92
2020-01-15 10:00:00 7.8 8 Este 15 Este 0 -- -- 90
2020-01-15 09:00:00 7.3 5 Nordeste 14 Este 0.4 -- -- 94
2020-01-15 08:00:00 7.4 3 Nordeste 9 Norte 0 -- -- 90
2020-01-15 07:00:00 7.3 3 Este 16 Este 0.2 -- -- 89
2020-01-15 06:00:00 7.1 5 Nordeste 16 Este 0 -- -- 90
2020-01-15 05:00:00 6.9 6 Este 14 Este 0 -- -- 90
2020-01-15 04:00:00 6.3 6 Este 13 Este 0 -- -- 92
2020-01-15 03:00:00 7 3 Este 16 Sur 0 -- -- 90
2020-01-15 02:00:00 7.7 5 Sur 8 Sudeste 0 -- -- 91
2020-01-15 01:00:00 8.2 4 Sudeste 10 Sudeste 0 -- -- 90
2020-01-15 00:00:00 8.3 3 Sudeste 9 Este 0 -- -- 90
2020-01-14 23:00:00 8 5 Nordeste 10 Este 0 -- -- 92
2020-01-14 22:00:00 8 5 Este 10 Este 0 -- -- 92
2020-01-14 21:00:00 7.4 4 Nordeste 8 Nordeste 0 -- -- 96
2020-01-14 20:00:00 7.3 4 Nordeste 6 Norte 0.6 -- -- 96
2020-01-14 19:00:00 7.9 2 Este 6 Sudeste 0.4 -- -- 90
2020-01-14 18:00:00 8 3 Nordeste 8 Sudeste 0 -- -- 83
2020-01-14 17:00:00 8.1 6 Este 12 Nordeste 0 -- -- 82
2020-01-14 16:00:00 8.4 5 Nordeste 12 Nordeste 0 -- -- 80
2020-01-14 15:00:00 8 9 Nordeste 14 Nordeste 0 -- -- 79
2020-01-14 14:00:00 7 7 Nordeste 12 Nordeste 0 -- -- 81
2020-01-14 13:00:00 6.6 6 Nordeste 10 Nordeste 0 -- -- 84
2020-01-14 12:00:00 5.3 5 Nordeste 11 Nordeste 0 -- -- 87
2020-01-14 11:00:00 3.9 8 Nordeste 14 Nordeste 0 -- -- 92
2020-01-14 10:00:00 4.4 3 Este 4 Este 0 -- -- 91
2020-01-14 09:00:00 3.3 0 Calma 6 Oeste 0 -- -- 91
2020-01-14 08:00:00 3.5 2 Nordeste 8 Nordeste 0 -- -- 90
2020-01-14 07:00:00 2 3 Nordeste 9 Este 0 -- -- 94
2020-01-14 06:00:00 2.2 5 Nordeste 9 Nordeste 0 -- -- 93
2020-01-14 05:00:00 3.4 3 Nordeste 8 Este 0 -- -- 89
2020-01-14 04:00:00 2.3 0 Calma 4 Nordeste 0 -- -- 92
2020-01-14 03:00:00 2.3 3 Nordeste 5 Nordeste 0 -- -- 90
2020-01-14 02:00:00 2.5 4 Nordeste 8 Nordeste 0 -- -- 92
2020-01-14 01:00:00 2.8 6 Nordeste 8 Nordeste 0 -- -- 90
2020-01-14 00:00:00 4.1 5 Este 8 Este 0 -- -- 84
2020-01-13 23:00:00 4.2 0 Calma 4 Norte 0 -- -- 84
2020-01-13 22:00:00 4.3 4 Norte 6 Este 0 -- -- 85
2020-01-13 21:00:00 5.9 0 Calma 7 Sur 0 -- -- 78
2020-01-13 20:00:00 6.9 4 Sur 10 Sur 0 -- -- 74
2020-01-13 19:00:00 7.6 3 Nordeste 7 Este 0 -- -- 76
2020-01-13 18:00:00 9.7 0 Calma 8 Sudoeste 0 -- -- 68
2020-01-13 17:00:00 10.1 6 Sudoeste 12 Sur 0 -- -- 66
2020-01-13 16:00:00 10.6 4 Sur 8 Sur 0 -- -- 62
2020-01-13 15:00:00 9.3 0 Calma 5 Nordeste 0 -- -- 67
2020-01-13 14:00:00 8.2 3 Este 9 Sudeste 0 -- -- 72
2020-01-13 13:00:00 6.8 6 Este 12 Nordeste 0 -- -- 78
2020-01-13 12:00:00 4.9 7 Nordeste 12 Nordeste 0 -- -- 85
2020-01-13 11:00:00 3.6 6 Nordeste 11 Nordeste 0 -- -- 88
2020-01-13 10:00:00 2.1 8 Nordeste 16 Nordeste 0 -- -- 89
2020-01-13 09:00:00 0.8 9 Nordeste 13 Nordeste 0 -- -- 96
2020-01-13 08:00:00 0.9 8 Nordeste 11 Nordeste 0 -- -- 94
2020-01-13 07:00:00 1.7 7 Nordeste 14 Nordeste 0 -- -- 92
2020-01-13 06:00:00 1.9 11 Nordeste 15 Nordeste 0 -- -- 93
2020-01-13 05:00:00 2.2 8 Nordeste 10 Este 0 -- -- 92
2020-01-13 04:00:00 2.9 7 Nordeste 10 Nordeste 0 -- -- 91
2020-01-13 03:00:00 3.4 6 Nordeste 9 Nordeste 0 -- -- 89
2020-01-13 02:00:00 3.2 7 Nordeste 9 Nordeste 0 -- -- 88
2020-01-13 01:00:00 4.1 5 Nordeste 9 Nordeste 0 -- -- 84
2020-01-13 00:00:00 3.9 5 Nordeste 8 Nordeste 0 -- -- 83
2020-01-12 23:00:00 5 5 Este 8 Este 0 -- -- 79
2020-01-12 22:00:00 6 5 Este 6 Este 0 -- -- 75
2020-01-12 21:00:00 7.1 2 Norte 4 Noroeste 0 -- -- 70
2020-01-12 20:00:00 7.7 3 Noroeste 5 Noroeste 0 -- -- 65
2020-01-12 19:00:00 8.4 3 Noroeste 6 Sudoeste 0 -- -- 66
2020-01-12 18:00:00 10.9 3 Sudoeste 10 Sur 0 -- -- 58
2020-01-12 17:00:00 11.4 5 Sudoeste 10 Sudoeste 0 -- -- 53
2020-01-12 16:00:00 11.9 7 Sudoeste 13 Sudoeste 0 -- -- 53
2020-01-12 15:00:00 11.7 5 Sudoeste 15 Sudoeste 0 -- -- 54
2020-01-12 14:00:00 10.5 4 Sudoeste 8 Sur 0 -- -- 59
2020-01-12 13:00:00 7.7 2 Este 6 Sudeste 0 -- -- 71
2020-01-12 12:00:00 5.2 4 Este 10 Este 0 -- -- 82
2020-01-12 11:00:00 3.1 7 Este 11 Nordeste 0 -- -- 88
2020-01-12 10:00:00 2.2 0 Calma 3 Este 0 -- -- 85
2020-01-12 09:00:00 0.3 0 Calma 5 Este 0 -- -- 91
2020-01-12 08:00:00 0.7 4 Este 5 Este 0 -- -- 89
2020-01-12 07:00:00 0.2 4 Nordeste 6 Este 0 -- -- 90
2020-01-12 06:00:00 0.3 0 Calma 4 Norte 0 -- -- 91
2020-01-12 05:00:00 1.7 2 Nordeste 5 Oeste 0 -- -- 87
2020-01-12 04:00:00 2.7 4 Oeste 6 Oeste 0 -- -- 83
2020-01-12 03:00:00 2.9 0 Calma 4 Sudoeste 0 -- -- 83
2020-01-12 02:00:00 3 2 Este 4 Este 0 -- -- 82
2020-01-12 01:00:00 3.6 3 Nordeste 5 Nordeste 0 -- -- 78
2020-01-12 00:00:00 4.9 3 Noroeste 4 Noroeste 0 -- -- 73
2020-01-11 23:00:00 6.1 2 Nordeste 15 Norte 0 -- -- 67
2020-01-11 22:00:00 7.7 8 Norte 14 Norte 0 -- -- 62
2020-01-11 21:00:00 6.7 5 Nordeste 10 Nordeste 0 -- -- 65
2020-01-11 20:00:00 7.9 7 Nordeste 12 Nordeste 0 -- -- 58
2020-01-11 19:00:00 8.1 4 Nordeste 9 Norte 0 -- -- 60
2020-01-11 18:00:00 9.4 5 Nordeste 12 Nordeste 0 -- -- 59
2020-01-11 17:00:00 10.3 8 Nordeste 18 Este 0 -- -- 57
2020-01-11 16:00:00 10.6 12 Este 20 Este 0 -- -- 54
2020-01-11 15:00:00 10.3 12 Este 22 Nordeste 0 -- -- 58
2020-01-11 14:00:00 9.1 15 Nordeste 23 Este 0 -- -- 60
2020-01-11 13:00:00 8.3 13 Nordeste 24 Nordeste 0 -- -- 64
2020-01-11 12:00:00 6.9 14 Este 21 Este 0 -- -- 70
2020-01-11 11:00:00 5 12 Este 17 Este 0 -- -- 75
2020-01-11 10:00:00 4.2 8 Sudeste 19 Nordeste 0 -- -- 76
2020-01-11 09:00:00 2.8 8 Nordeste 17 Nordeste 0 -- -- 80
2020-01-11 08:00:00 3.1 9 Nordeste 18 Nordeste 0 -- -- 79
2020-01-11 07:00:00 3.9 5 Este 10 Nordeste 0 -- -- 74
2020-01-11 06:00:00 4.3 9 Nordeste 19 Nordeste 0 -- -- 73
2020-01-11 05:00:00 2.6 6 Nordeste 11 Este 0 -- -- 80
2020-01-11 04:00:00 6.1 7 Nordeste 15 Noroeste 0 -- -- 63
2020-01-11 03:00:00 7.1 9 Norte 15 Noroeste 0 -- -- 60
2020-01-11 02:00:00 7.2 8 Noroeste 15 Noroeste 0 -- -- 61
2020-01-11 01:00:00 6.3 0 Calma 5 Norte 0 -- -- 65
2020-01-11 00:00:00 6.4 4 Nordeste 13 Nordeste 0 -- -- 65
2020-01-10 23:00:00 7.1 8 Nordeste 20 Nordeste 0 -- -- 63
2020-01-10 22:00:00 7.9 9 Nordeste 15 Norte 0 -- -- 61
2020-01-10 21:00:00 7.9 5 Norte 13 Noroeste 0 -- -- 61
2020-01-10 20:00:00 7.9 4 Noroeste 12 Noroeste 0 -- -- 67
2020-01-10 19:00:00 8.9 6 Norte 9 Norte 0 -- -- 63
2020-01-10 18:00:00 10.6 5 Norte 13 Norte 0 -- -- 58
2020-01-10 17:00:00 11.5 4 Norte 18 Norte 0 -- -- 55
2020-01-10 16:00:00 11.8 9 Norte 17 Norte 0 -- -- 54
2020-01-10 15:00:00 11.3 10 Nordeste 24 Este 0 -- -- 54
2020-01-10 14:00:00 10.8 15 Este 24 Nordeste 0 -- -- 55
2020-01-10 13:00:00 10.3 11 Este 27 Este 0 -- -- 60
2020-01-10 12:00:00 9.5 6 Nordeste 17 Nordeste 0 -- -- 70
2020-01-10 11:00:00 8.3 11 Norte 23 Norte 0 -- -- 77
2020-01-10 10:00:00 6.6 10 Norte 21 Norte 0 -- -- 83
2020-01-10 09:00:00 5.3 15 Norte 35 Noroeste 0 -- -- 75
2020-01-10 08:00:00 5.8 21 Norte 42 Noroeste 0 -- -- 73
2020-01-10 07:00:00 6.2 22 Norte 54 Norte 0 -- -- 71
2020-01-10 06:00:00 7 31 Norte 62 Norte 0 -- -- 65
2020-01-10 05:00:00 7.3 32 Norte 57 Noroeste 0 -- -- 65
2020-01-10 04:00:00 8 31 Norte 58 Norte 0 -- -- 62
2020-01-10 03:00:00 8.5 17 Norte 41 Norte 0 -- -- 65
2020-01-10 02:00:00 8.5 19 Noroeste 35 Noroeste 0 -- -- 72
2020-01-10 01:00:00 9.3 15 Noroeste 44 Noroeste 0 -- -- 70
2020-01-10 00:00:00 10.1 27 Noroeste 45 Noroeste 0 -- -- 68
2020-01-09 23:00:00 10.3 10 Noroeste 23 Noroeste 0 -- -- 76
2020-01-09 22:00:00 7.9 3 Norte 6 Norte 0 -- -- 86
2020-01-09 21:00:00 8.6 3 Sudoeste 9 Sudoeste 0 -- -- 83
2020-01-09 20:00:00 9.7 6 Sudoeste 12 Sudoeste 0 -- -- 78
2020-01-09 19:00:00 10.2 6 Oeste 13 Oeste 0 -- -- 76
2020-01-09 18:00:00 11.3 7 Sudoeste 15 Oeste 0 -- -- 72
2020-01-09 17:00:00 12.7 9 Oeste 19 Sudoeste 0 -- -- 72
2020-01-09 16:00:00 13.7 10 Sur 17 Sur 0 -- -- 64
2020-01-09 15:00:00 13.6 4 Oeste 11 Sudeste 0 -- -- 63
2020-01-09 14:00:00 11.7 7 Este 15 Este 0 -- -- 65
2020-01-09 13:00:00 10.3 10 Nordeste 18 Nordeste 0 -- -- 69
2020-01-09 12:00:00 8.3 10 Este 17 Este 0 -- -- 79
2020-01-09 11:00:00 6.7 7 Nordeste 13 Este 0 -- -- 84
2020-01-09 10:00:00 5.2 7 Este 11 Este 0 -- -- 89
2020-01-09 09:00:00 5.4 10 Nordeste 22 Nordeste 0 -- -- 88
2020-01-09 08:00:00 4.6 15 Nordeste 22 Nordeste 0 -- -- 91
2020-01-09 07:00:00 4.5 13 Nordeste 21 Nordeste 0 -- -- 92
2020-01-09 06:00:00 3.5 10 Nordeste 15 Nordeste 0 -- -- 98
2020-01-09 05:00:00 3.3 7 Este 10 Nordeste 0 -- -- 96
2020-01-09 04:00:00 3.7 6 Este 12 Sudeste 0 -- -- 93
2020-01-09 03:00:00 4.2 6 Este 10 Nordeste 0 -- -- 91
2020-01-09 02:00:00 6.5 4 Este 6 Este 0 -- -- 85
2020-01-09 01:00:00 5 0 Calma 4 Este 0 -- -- 88
2020-01-09 00:00:00 6 0 Calma 3 Sudoeste 0 -- -- 81
2020-01-08 23:00:00 6.4 3 Sudeste 8 Este 0 -- -- 78
2020-01-08 22:00:00 7 5 Este 10 Este 0 -- -- 76
2020-01-08 21:00:00 7.2 5 Nordeste 7 Nordeste 0 -- -- 74
2020-01-08 20:00:00 7.4 3 Nordeste 6 Nordeste 0 -- -- 77
2020-01-08 19:00:00 8.3 0 Calma 4 Nordeste 0 -- -- 80
2020-01-08 18:00:00 9.8 4 Sudeste 9 Este 0 -- -- 74
2020-01-08 17:00:00 11.3 4 Este 9 Nordeste 0 -- -- 70
2020-01-08 16:00:00 11 6 Este 12 Este 0 -- -- 69
2020-01-08 15:00:00 10.3 8 Nordeste 13 Nordeste 0 -- -- 71
2020-01-08 14:00:00 9 9 Este 15 Este 0 -- -- 77
2020-01-08 13:00:00 6.7 9 Este 12 Este 0 -- -- 89
2020-01-08 12:00:00 4.1 6 Este 12 Este 0 -- -- 100
2020-01-08 11:00:00 3.2 8 Este 17 Este 0 -- -- 100
2020-01-08 10:00:00 2.7 12 Este 19 Este 0 -- -- 100
2020-01-08 09:00:00 2.7 13 Nordeste 18 Nordeste 0 -- -- 100
2020-01-08 08:00:00 2.1 8 Nordeste 15 Nordeste 0 -- -- 100
2020-01-08 07:00:00 1.9 8 Nordeste 12 Nordeste 0 -- -- 99
2020-01-08 06:00:00 2.4 7 Nordeste 10 Nordeste 0 -- -- 96
2020-01-08 05:00:00 4 4 Este 6 Este 0 -- -- 96
2020-01-08 04:00:00 3.8 0 Calma 4 Este 0 -- -- 98
2020-01-08 03:00:00 4.2 4 Este 5 Este 0 -- -- 94
2020-01-08 02:00:00 4.6 3 Nordeste 6 Este 0 -- -- 94
2020-01-08 01:00:00 4.4 3 Nordeste 5 Este 0 -- -- 94
2020-01-08 00:00:00 5 3 Nordeste 6 Este 0 -- -- 93
2020-01-07 23:00:00 5.8 3 Nordeste 4 Nordeste 0 -- -- 92
2020-01-07 22:00:00 6.1 3 Nordeste 4 Nordeste 0 -- -- 90
2020-01-07 21:00:00 7.5 0 Calma 2 Norte 0 -- -- 86
2020-01-07 20:00:00 9.1 3 Oeste 4 Oeste 0 -- -- 80
2020-01-07 19:00:00 9.3 0 Calma 4 Oeste 0 -- -- 75
2020-01-07 18:00:00 11 0 Calma 5 Sur 0 -- -- 68
2020-01-07 17:00:00 11.3 3 Sudeste 10 Este 0 -- -- 68
2020-01-07 16:00:00 11.3 8 Este 14 Sudeste 0 -- -- 67
2020-01-07 15:00:00 11.5 8 Este 13 Este 0 -- -- 67
2020-01-07 14:00:00 9.9 8 Este 14 Este 0 -- -- 75
2020-01-07 13:00:00 7.4 8 Este 12 Este 0 -- -- 88
2020-01-07 12:00:00 5.5 6 Este 13 Este 0 -- -- 100
2020-01-07 11:00:00 3.4 4 Este 10 Este 0 -- -- 100
2020-01-07 10:00:00 2 2 Este 17 Este 0 -- -- 99
2020-01-07 09:00:00 2.9 12 Este 18 Este 0 -- -- 99
2020-01-07 08:00:00 3.1 10 Este 14 Este 0 -- -- 99
2020-01-07 07:00:00 1.6 3 Nordeste 14 Este 0 -- -- 98
2020-01-07 06:00:00 3.6 9 Nordeste 13 Nordeste 0 -- -- 98
2020-01-07 05:00:00 4.1 10 Nordeste 13 Nordeste 0 -- -- 96
2020-01-07 04:00:00 3.8 8 Nordeste 12 Este 0 -- -- 96
2020-01-07 03:00:00 3.8 6 Nordeste 8 Nordeste 0 -- -- 91
2020-01-07 02:00:00 4.7 4 Este 6 Sudeste 0 -- -- 90
2020-01-07 01:00:00 4.9 3 Nordeste 6 Nordeste 0 -- -- 92
2020-01-07 00:00:00 5 4 Nordeste 7 Sudeste 0 -- -- 93
2020-01-06 23:00:00 5.9 6 Este 7 Sudeste 0 -- -- 89
2020-01-06 22:00:00 5.5 3 Nordeste 5 Este 0 -- -- 88
2020-01-06 21:00:00 7.4 2 Noroeste 4 Oeste 0 -- -- 81
2020-01-06 20:00:00 9.2 3 Oeste 14 Noroeste 0 -- -- 74
2020-01-06 19:00:00 7.9 3 Norte 8 Nordeste 0 -- -- 81
2020-01-06 18:00:00 9.7 4 Este 9 Sudeste 0 -- -- 73
2020-01-06 17:00:00 10.6 4 Este 10 Este 0 -- -- 71
2020-01-06 16:00:00 11.5 5 Este 10 Nordeste 0 -- -- 65
2020-01-06 15:00:00 10.8 7 Este 17 Este 0 -- -- 67
2020-01-06 14:00:00 10.3 9 Este 16 Este 0 -- -- 69
2020-01-06 13:00:00 8.5 6 Este 19 Este 0 -- -- 78
2020-01-06 12:00:00 6.7 7 Este 21 Nordeste 0 -- -- 86
2020-01-06 11:00:00 4.6 9 Este 20 Este 0 -- -- 92
2020-01-06 10:00:00 3.8 9 Este 16 Nordeste 0 -- -- 94